createdAt,value
2023-04-10T00:00:17.597Z,97154.03
2023-04-10T00:02:45.782Z,97159.47
2023-04-10T00:05:14.097Z,97162.28
2023-04-10T00:07:42.244Z,97149.75
2023-04-10T00:10:11.263Z,97154.16
2023-04-10T00:12:40.768Z,97155.78
2023-04-10T00:15:10.448Z,97158.69
2023-04-10T00:17:38.583Z,97148.50
2023-04-10T00:20:08.687Z,97143.34
2023-04-10T00:22:36.782Z,97138.84
2023-04-10T00:25:06.523Z,97142.22
2023-04-10T00:27:34.550Z,97145.44
2023-04-10T00:30:04.283Z,97140.47
2023-04-10T00:32:32.382Z,97144.53
2023-04-10T00:35:00.562Z,97138.03
2023-04-10T00:37:28.634Z,97136.44
2023-04-10T00:39:56.805Z,97128.84
2023-04-10T00:42:24.869Z,97128.00
2023-04-10T00:44:53.102Z,97119.78
2023-04-10T00:47:23.059Z,97119.53
2023-04-10T00:49:51.314Z,97122.59
2023-04-10T00:52:19.426Z,97121.94
2023-04-10T00:54:47.713Z,97121.50
2023-04-10T00:57:15.770Z,97121.91
2023-04-10T00:59:43.943Z,97113.72
2023-04-10T01:02:13.231Z,97125.78
2023-04-10T01:04:43.158Z,97124.88
2023-04-10T01:07:19.151Z,97128.84
2023-04-10T01:09:53.736Z,97134.34
2023-04-10T01:12:52.604Z,97131.56
2023-04-10T01:15:24.474Z,97135.78
2023-04-10T01:18:02.016Z,97141.22
2023-04-10T01:20:35.983Z,97137.66
2023-04-10T01:23:36.727Z,97134.84
2023-04-10T01:26:07.308Z,97138.16
2023-04-10T01:29:00.169Z,97131.84
2023-04-10T01:31:37.322Z,97127.25
2023-04-10T01:34:10.483Z,97126.25
2023-04-10T01:36:48.752Z,97120.56
2023-04-10T01:39:21.104Z,97122.72
2023-04-10T01:41:52.488Z,97115.56
2023-04-10T01:44:28.571Z,97112.41
2023-04-10T01:46:58.127Z,97118.59
2023-04-10T01:49:29.891Z,97115.13
2023-04-10T01:52:04.581Z,97113.66
2023-04-10T01:54:34.460Z,97111.66
2023-04-10T01:57:04.942Z,97117.34
2023-04-10T01:59:42.460Z,97110.56
2023-04-10T02:02:11.892Z,97117.31
2023-04-10T02:04:40.253Z,97120.34
2023-04-10T02:07:14.816Z,97114.81
2023-04-10T02:09:52.010Z,97121.94
2023-04-10T02:12:29.794Z,97118.44
2023-04-10T02:15:02.909Z,97123.16
2023-04-10T02:17:32.798Z,97124.63
2023-04-10T02:20:02.080Z,97114.66
2023-04-10T02:22:30.328Z,97106.63
2023-04-10T02:25:00.467Z,97110.34
2023-04-10T02:27:31.025Z,97109.53
2023-04-10T02:30:03.256Z,97109.19
2023-04-10T02:32:33.853Z,97107.56
2023-04-10T02:35:02.982Z,97108.75
2023-04-10T02:37:32.854Z,97113.97
2023-04-10T02:40:02.645Z,97116.28
2023-04-10T02:42:38.880Z,97125.47
2023-04-10T02:45:10.270Z,97121.97
2023-04-10T02:47:41.775Z,97124.47
2023-04-10T02:50:11.339Z,97126.47
2023-04-10T02:52:42.177Z,97121.88
2023-04-10T02:55:11.653Z,97126.19
2023-04-10T02:57:42.577Z,97124.91
2023-04-10T03:00:14.153Z,97121.69
2023-04-10T03:03:01.029Z,97125.16
2023-04-10T03:05:36.228Z,97124.00
2023-04-10T03:08:04.450Z,97114.34
2023-04-10T03:10:32.537Z,97109.59
2023-04-10T03:13:00.606Z,97107.94
2023-04-10T03:15:30.049Z,97110.94
2023-04-10T03:17:59.377Z,97111.72
2023-04-10T03:20:27.722Z,97114.88
2023-04-10T03:22:55.927Z,97112.59
2023-04-10T03:25:27.702Z,97096.56
2023-04-10T03:27:56.382Z,97097.19
2023-04-10T03:30:24.900Z,97103.09
2023-04-10T03:32:54.423Z,97095.06
2023-04-10T03:35:22.732Z,97094.41
2023-04-10T03:37:50.874Z,97095.91
2023-04-10T03:40:18.991Z,97085.31
2023-04-10T03:42:47.322Z,97092.06
2023-04-10T03:45:15.797Z,97083.00
2023-04-10T03:47:44.800Z,97090.22
2023-04-10T03:50:17.824Z,97091.00
2023-04-10T03:52:52.227Z,97087.53
2023-04-10T03:55:22.824Z,97081.63
2023-04-10T03:57:52.527Z,97083.28
2023-04-10T04:00:26.076Z,97080.22
2023-04-10T04:03:05.025Z,97083.84
2023-04-10T04:05:56.243Z,97071.59
2023-04-10T04:08:29.109Z,97063.09
2023-04-10T04:11:20.356Z,97059.47
2023-04-10T04:13:58.876Z,97063.72
2023-04-10T04:16:50.008Z,97061.91
2023-04-10T04:19:34.878Z,97057.03
2023-04-10T04:22:23.418Z,97054.22
2023-04-10T04:25:00.331Z,97056.19
2023-04-10T04:27:48.648Z,97061.88
2023-04-10T04:30:52.318Z,97063.16
2023-04-10T04:33:29.149Z,97063.66
2023-04-10T04:36:03.830Z,97061.38
2023-04-10T04:38:45.314Z,97062.22
2023-04-10T04:41:27.237Z,97065.38
2023-04-10T04:44:04.679Z,97071.41
2023-04-10T04:46:51.432Z,97069.44
2023-04-10T04:49:41.641Z,97079.22
2023-04-10T04:52:30.075Z,97073.53
2023-04-10T04:55:08.595Z,97069.44
2023-04-10T04:57:58.437Z,97084.97
2023-04-10T05:00:38.545Z,97082.88
2023-04-10T05:03:12.351Z,97081.41
2023-04-10T05:05:59.776Z,97086.47
2023-04-10T05:08:38.190Z,97081.38
2023-04-10T05:11:25.462Z,97074.69
2023-04-10T05:13:59.111Z,97089.38
2023-04-10T05:16:38.726Z,97092.44
2023-04-10T05:19:18.192Z,97091.25
2023-04-10T05:21:55.652Z,97086.53
2023-04-10T05:24:23.687Z,97087.34
2023-04-10T05:27:11.470Z,97092.22
2023-04-10T05:29:57.943Z,97087.47
2023-04-10T05:32:38.095Z,97087.06
2023-04-10T05:35:24.942Z,97085.41
2023-04-10T05:38:01.539Z,97082.75
2023-04-10T05:40:55.185Z,97084.56
2023-04-10T05:43:38.900Z,97085.19
2023-04-10T05:46:13.990Z,97092.88
2023-04-10T05:48:52.950Z,97094.47
2023-04-10T05:51:39.134Z,97098.22
2023-04-10T05:54:21.207Z,97089.03
2023-04-10T05:57:02.835Z,97097.16
2023-04-10T05:59:56.445Z,97099.31
2023-04-10T06:02:24.764Z,97102.69
2023-04-10T06:04:53.239Z,97098.56
2023-04-10T06:07:21.781Z,97093.44
2023-04-10T06:09:49.872Z,97097.09
2023-04-10T06:12:18.023Z,97091.31
2023-04-10T06:14:46.174Z,97097.72
2023-04-10T06:17:15.608Z,97094.84
2023-04-10T06:19:43.722Z,97095.78
2023-04-10T06:22:11.798Z,97095.25
2023-04-10T06:24:39.842Z,97093.94
2023-04-10T06:27:07.981Z,97094.28
2023-04-10T06:29:36.320Z,97094.34
2023-04-10T06:32:04.465Z,97089.88
2023-04-10T06:34:38.090Z,97082.28
2023-04-10T06:37:08.469Z,97083.47
2023-04-10T06:39:39.324Z,97081.38
2023-04-10T06:42:07.490Z,97078.13
2023-04-10T06:44:55.429Z,97081.50
2023-04-10T06:47:23.551Z,97083.63
2023-04-10T06:49:53.258Z,97080.72
2023-04-10T06:52:23.749Z,97078.31
2023-04-10T06:54:51.787Z,97067.31
2023-04-10T06:57:19.967Z,97068.66
2023-04-10T06:59:48.076Z,97061.13
2023-04-10T07:02:16.353Z,97058.03
2023-04-10T07:04:44.396Z,97065.03
2023-04-10T07:07:15.831Z,97059.94
2023-04-10T07:09:43.890Z,97055.63
2023-04-10T07:12:12.482Z,97064.03
2023-04-10T07:14:41.335Z,97063.13
2023-04-10T07:17:09.948Z,97064.59
2023-04-10T07:19:38.656Z,97063.06
2023-04-10T07:22:07.995Z,97057.72
2023-04-10T07:24:37.442Z,97057.13
2023-04-10T07:27:05.569Z,97065.50
2023-04-10T07:29:33.660Z,97064.38
2023-04-10T07:32:01.988Z,97057.78
2023-04-10T07:34:32.412Z,97055.06
2023-04-10T07:37:00.505Z,97054.50
2023-04-10T07:39:28.577Z,97051.28
2023-04-10T07:41:58.036Z,97054.34
2023-04-10T07:44:28.576Z,97060.03
2023-04-10T07:46:56.855Z,97059.03
2023-04-10T07:49:25.022Z,97060.91
2023-04-10T07:51:53.090Z,97059.88
2023-04-10T07:54:21.324Z,97057.88
2023-04-10T07:56:49.394Z,97047.31
2023-04-10T07:59:18.812Z,97058.03
2023-04-10T08:01:46.889Z,97052.56
2023-04-10T08:04:15.336Z,97049.75
2023-04-10T08:06:43.479Z,97050.31
2023-04-10T08:09:11.973Z,97045.63
2023-04-10T08:11:40.175Z,97040.94
2023-04-10T08:14:08.464Z,97041.47
2023-04-10T08:16:38.757Z,97034.53
2023-04-10T08:19:06.975Z,97046.63
2023-04-10T08:21:35.033Z,97035.97
2023-04-10T08:24:05.021Z,97033.84
2023-04-10T08:26:33.084Z,97039.50
2023-04-10T08:29:01.780Z,97037.16
2023-04-10T08:31:30.819Z,97043.38
2023-04-10T08:34:00.708Z,97044.22
2023-04-10T08:36:29.222Z,97038.09
2023-04-10T08:38:57.364Z,97033.13
2023-04-10T08:41:25.487Z,97038.09
2023-04-10T08:43:53.867Z,97028.63
2023-04-10T08:46:31.329Z,97028.19
2023-04-10T08:49:04.565Z,97036.84
2023-04-10T08:51:38.336Z,97040.81
2023-04-10T08:54:11.858Z,97033.53
2023-04-10T08:56:43.772Z,97033.59
2023-04-10T08:59:11.981Z,97027.75
2023-04-10T09:01:41.579Z,97027.97
2023-04-10T09:04:13.267Z,97036.22
2023-04-10T09:06:41.555Z,97032.22
2023-04-10T09:09:10.431Z,97031.88
2023-04-10T09:12:00.446Z,97028.25
2023-04-10T09:14:30.860Z,97023.34
2023-04-10T09:17:14.858Z,97029.25
2023-04-10T09:19:46.498Z,97019.13
2023-04-10T09:22:15.190Z,97016.94
2023-04-10T09:24:45.839Z,97009.31
2023-04-10T09:27:31.291Z,97001.97
2023-04-10T09:30:00.108Z,96997.00
2023-04-10T09:32:40.857Z,96998.94
2023-04-10T09:35:36.520Z,96992.72
2023-04-10T09:38:17.050Z,96978.09
2023-04-10T09:40:46.040Z,96980.38
2023-04-10T09:43:23.216Z,96983.50
2023-04-10T09:45:54.253Z,96978.28
2023-04-10T09:48:26.658Z,96983.41
2023-04-10T09:50:56.657Z,96970.19
2023-04-10T09:53:24.776Z,96969.06
2023-04-10T09:55:53.013Z,96957.25
2023-04-10T09:58:21.193Z,96961.78
2023-04-10T10:00:50.631Z,96949.03
2023-04-10T10:03:21.403Z,96954.09
2023-04-10T10:05:52.308Z,96953.44
2023-04-10T10:08:22.474Z,96939.59
2023-04-10T10:10:55.514Z,96937.91
2023-04-10T10:13:29.909Z,96932.22
2023-04-10T10:16:09.929Z,96923.19
2023-04-10T10:18:47.391Z,96914.16
2023-04-10T10:21:16.108Z,96910.03
2023-04-10T10:23:46.709Z,96899.25
2023-04-10T10:26:15.668Z,96900.69
2023-04-10T10:28:44.677Z,96893.25
2023-04-10T10:31:13.660Z,96904.84
2023-04-10T10:33:42.868Z,96894.78
2023-04-10T10:36:13.883Z,96887.84
2023-04-10T10:39:02.277Z,96879.09
2023-04-10T10:41:40.883Z,96876.97
2023-04-10T10:44:15.344Z,96876.56
2023-04-10T10:46:54.064Z,96877.69
2023-04-10T10:49:22.143Z,96883.16
2023-04-10T10:51:52.164Z,96882.28
2023-04-10T10:54:31.561Z,96868.31
2023-04-10T10:57:02.465Z,96877.78
2023-04-10T10:59:56.575Z,96869.88
2023-04-10T11:02:25.295Z,96871.28
2023-04-10T11:04:53.465Z,96862.09
2023-04-10T11:07:21.727Z,96868.06
2023-04-10T11:09:52.470Z,96853.50
2023-04-10T11:12:24.320Z,96856.13
2023-04-10T11:15:00.756Z,96855.69
2023-04-10T11:17:52.411Z,96853.00
2023-04-10T11:20:25.799Z,96853.16
2023-04-10T11:23:12.066Z,96844.69
2023-04-10T11:25:51.994Z,96850.28
2023-04-10T11:28:38.321Z,96839.13
2023-04-10T11:31:22.216Z,96844.53
2023-04-10T11:34:01.902Z,96843.75
2023-04-10T11:36:30.634Z,96840.84
2023-04-10T11:39:00.400Z,96835.78
2023-04-10T11:41:31.290Z,96840.38
2023-04-10T11:44:02.178Z,96842.28
2023-04-10T11:46:30.813Z,96839.06
2023-04-10T11:49:02.851Z,96834.06
2023-04-10T11:51:31.808Z,96826.00
2023-04-10T11:54:08.852Z,96814.03
2023-04-10T11:56:38.304Z,96810.75
2023-04-10T11:59:10.964Z,96803.84
2023-04-10T12:01:42.530Z,96793.72
2023-04-10T12:04:16.437Z,96796.63
2023-04-10T12:06:46.905Z,96797.78
2023-04-10T12:09:17.276Z,96787.63
2023-04-10T12:11:53.042Z,96778.28
2023-04-10T12:14:24.052Z,96765.75
2023-04-10T12:16:53.193Z,96782.53
2023-04-10T12:19:23.572Z,96782.28
2023-04-10T12:21:51.743Z,96768.34
2023-04-10T12:24:45.945Z,96772.91
2023-04-10T12:27:18.499Z,96771.31
2023-04-10T12:29:49.448Z,96770.38
2023-04-10T12:32:18.314Z,96770.41
2023-04-10T12:34:51.879Z,96769.66
2023-04-10T12:37:20.249Z,96758.72
2023-04-10T12:39:48.366Z,96752.31
2023-04-10T12:42:19.313Z,96745.13
2023-04-10T12:44:58.841Z,96756.81
2023-04-10T12:47:30.005Z,96743.72
2023-04-10T12:50:08.954Z,96749.56
2023-04-10T12:52:38.702Z,96742.59
2023-04-10T12:55:13.059Z,96743.34
2023-04-10T12:57:42.204Z,96749.63
2023-04-10T13:00:15.867Z,96744.56
2023-04-10T13:02:44.616Z,96743.72
2023-04-10T13:05:13.134Z,96734.16
2023-04-10T13:07:42.073Z,96721.88
2023-04-10T13:10:11.202Z,96726.44
2023-04-10T13:12:40.681Z,96715.84
2023-04-10T13:15:11.745Z,96715.00
2023-04-10T13:17:41.103Z,96723.28
2023-04-10T13:20:10.803Z,96709.38
2023-04-10T13:22:39.004Z,96710.19
2023-04-10T13:25:07.834Z,96712.66
2023-04-10T13:27:35.897Z,96707.88
2023-04-10T13:30:04.192Z,96708.13
2023-04-10T13:32:33.656Z,96708.13
2023-04-10T13:35:01.757Z,96711.34
2023-04-10T13:37:29.903Z,96706.25
2023-04-10T13:39:57.906Z,96702.84
2023-04-10T13:42:26.146Z,96700.66
2023-04-10T13:44:54.229Z,96688.31
2023-04-10T13:47:48.650Z,96686.72
2023-04-10T13:50:16.734Z,96689.38
2023-04-10T13:52:44.868Z,96687.78
2023-04-10T13:55:13.188Z,96679.53
2023-04-10T13:57:41.893Z,96678.69
2023-04-10T14:00:10.901Z,96678.94
2023-04-10T14:02:43.270Z,96679.44
2023-04-10T14:05:12.988Z,96670.34
2023-04-10T14:07:41.060Z,96664.44
2023-04-10T14:10:10.910Z,96661.50
2023-04-10T14:12:39.099Z,96651.34
2023-04-10T14:15:08.886Z,96657.22
2023-04-10T14:17:37.122Z,96654.88
2023-04-10T14:20:06.443Z,96661.25
2023-04-10T14:22:36.742Z,96655.41
2023-04-10T14:25:13.131Z,96653.78
2023-04-10T14:27:42.432Z,96648.16
2023-04-10T14:30:11.612Z,96642.56
2023-04-10T14:32:40.557Z,96645.00
2023-04-10T14:35:09.842Z,96648.75
2023-04-10T14:37:39.825Z,96644.72
2023-04-10T14:40:10.857Z,96652.94
2023-04-10T14:42:38.934Z,96645.78
2023-04-10T14:45:08.479Z,96648.19
2023-04-10T14:47:36.895Z,96634.31
2023-04-10T14:50:05.691Z,96633.50
2023-04-10T14:52:33.860Z,96628.19
2023-04-10T14:55:03.482Z,96631.06
2023-04-10T14:57:31.607Z,96628.09
2023-04-10T15:00:01.334Z,96623.66
2023-04-10T15:02:30.470Z,96613.19
2023-04-10T15:04:58.750Z,96614.84
2023-04-10T15:07:28.247Z,96610.25
2023-04-10T15:09:58.824Z,96603.31
2023-04-10T15:12:28.274Z,96608.63
2023-04-10T15:14:56.370Z,96599.31
2023-04-10T15:17:25.165Z,96590.50
2023-04-10T15:19:53.242Z,96590.50
2023-04-10T15:22:21.378Z,96585.41
2023-04-10T15:24:50.899Z,96577.16
2023-04-10T15:27:20.947Z,96576.09
2023-04-10T15:29:50.520Z,96580.91
2023-04-10T15:32:18.657Z,96572.91
2023-04-10T15:34:46.759Z,96570.75
2023-04-10T15:37:14.800Z,96562.16
2023-04-10T15:39:42.822Z,96564.56
2023-04-10T15:42:10.870Z,96561.59
2023-04-10T15:44:38.930Z,96562.69
2023-04-10T15:47:08.321Z,96558.94
2023-04-10T15:49:38.385Z,96557.34
2023-04-10T15:52:07.365Z,96549.63
2023-04-10T15:54:35.737Z,96549.09
2023-04-10T15:57:04.237Z,96539.75
2023-04-10T15:59:33.864Z,96542.94
2023-04-10T16:02:02.303Z,96532.50
2023-04-10T16:04:32.491Z,96536.50
2023-04-10T16:07:00.734Z,96534.59
2023-04-10T16:09:28.902Z,96535.91
2023-04-10T16:11:57.761Z,96531.59
2023-04-10T16:14:25.847Z,96529.44
2023-04-10T16:16:53.878Z,96532.63
2023-04-10T16:19:21.954Z,96522.56
2023-04-10T16:21:51.881Z,96533.69
2023-04-10T16:24:20.728Z,96533.16
2023-04-10T16:26:48.775Z,96533.94
2023-04-10T16:29:19.764Z,96529.41
2023-04-10T16:31:48.013Z,96521.69
2023-04-10T16:34:16.183Z,96513.44
2023-04-10T16:36:44.389Z,96513.13
2023-04-10T16:39:13.829Z,96493.72
2023-04-10T16:41:41.857Z,96484.63
2023-04-10T16:44:12.422Z,96490.47
2023-04-10T16:46:40.545Z,96484.56
2023-04-10T16:49:32.576Z,96484.78
2023-04-10T16:52:00.617Z,96476.03
2023-04-10T16:54:30.124Z,96474.16
2023-04-10T16:56:58.730Z,96476.53
2023-04-10T16:59:26.829Z,96467.22
2023-04-10T17:01:54.986Z,96469.88
2023-04-10T17:04:23.160Z,96477.03
2023-04-10T17:06:51.335Z,96474.34
2023-04-10T17:09:19.388Z,96477.50
2023-04-10T17:11:48.874Z,96479.59
2023-04-10T17:14:16.931Z,96475.59
2023-04-10T17:16:45.813Z,96479.56
2023-04-10T17:19:14.060Z,96472.91
2023-04-10T17:21:42.115Z,96472.31
2023-04-10T17:24:10.208Z,96471.78
2023-04-10T17:26:38.832Z,96468.06
2023-04-10T17:29:08.230Z,96468.81
2023-04-10T17:31:36.353Z,96469.34
2023-04-10T17:34:04.931Z,96462.91
2023-04-10T17:36:33.164Z,96470.06
2023-04-10T17:39:01.584Z,96469.00
2023-04-10T17:41:29.889Z,96458.06
2023-04-10T17:43:57.958Z,96452.75
2023-04-10T17:46:27.962Z,96447.66
2023-04-10T17:49:01.202Z,96451.91
2023-04-10T17:51:29.727Z,96446.25
2023-04-10T17:53:57.719Z,96438.28
2023-04-10T17:56:25.796Z,96438.22
2023-04-10T17:58:54.728Z,96437.13
2023-04-10T18:01:24.194Z,96438.09
2023-04-10T18:03:53.764Z,96433.81
2023-04-10T18:06:21.962Z,96426.34
2023-04-10T18:08:51.047Z,96421.03
2023-04-10T18:11:19.631Z,96407.44
2023-04-10T18:13:48.206Z,96401.81
2023-04-10T18:16:17.451Z,96398.56
2023-04-10T18:18:45.609Z,96389.25
2023-04-10T18:21:15.310Z,96380.72
2023-04-10T18:23:44.569Z,96388.91
2023-04-10T18:26:13.571Z,96408.56
2023-04-10T18:28:43.190Z,96416.44
2023-04-10T18:31:14.679Z,96428.63
2023-04-10T18:33:43.513Z,96435.75
2023-04-10T18:36:13.984Z,96427.47
2023-04-10T18:38:43.882Z,96437.50
2023-04-10T18:41:12.019Z,96444.59
2023-04-10T18:43:40.234Z,96434.50
2023-04-10T18:46:08.706Z,96441.88
2023-04-10T18:48:42.999Z,96452.22
2023-04-10T18:51:12.009Z,96462.31
2023-04-10T18:53:41.336Z,96464.44
2023-04-10T18:56:10.962Z,96459.84
2023-04-10T18:58:39.041Z,96465.97
2023-04-10T19:01:07.924Z,96453.97
2023-04-10T19:03:36.355Z,96459.75
2023-04-10T19:06:04.743Z,96447.47
2023-04-10T19:08:32.818Z,96455.13
2023-04-10T19:11:00.884Z,96453.03
2023-04-10T19:13:30.251Z,96452.47
2023-04-10T19:15:58.333Z,96449.00
2023-04-10T19:18:26.453Z,96445.84
2023-04-10T19:20:55.027Z,96445.63
2023-04-10T19:23:23.114Z,96439.69
2023-04-10T19:25:54.131Z,96445.06
2023-04-10T19:28:23.858Z,96456.19
2023-04-10T19:30:53.499Z,96468.63
2023-04-10T19:33:21.622Z,96469.38
2023-04-10T19:35:49.720Z,96471.47
2023-04-10T19:38:18.093Z,96472.19
2023-04-10T19:40:47.136Z,96475.72
2023-04-10T19:43:15.230Z,96475.25
2023-04-10T19:45:43.368Z,96480.25
2023-04-10T19:48:16.742Z,96472.03
2023-04-10T19:50:44.770Z,96470.19
2023-04-10T19:53:15.428Z,96474.94
2023-04-10T19:55:46.182Z,96480.66
2023-04-10T19:58:35.654Z,96469.81
2023-04-10T20:01:06.323Z,96477.38
2023-04-10T20:03:36.877Z,96485.34
2023-04-10T20:06:07.853Z,96479.47
2023-04-10T20:08:37.467Z,96472.06
2023-04-10T20:11:06.738Z,96469.91
2023-04-10T20:13:35.359Z,96450.03
2023-04-10T20:16:03.893Z,96439.34
2023-04-10T20:18:32.869Z,96439.34
2023-04-10T20:21:02.531Z,96427.13
2023-04-10T20:23:30.586Z,96430.03
2023-04-10T20:25:58.647Z,96436.13
2023-04-10T20:28:26.869Z,96438.00
2023-04-10T20:30:54.974Z,96438.22
2023-04-10T20:33:23.246Z,96430.09
2023-04-10T20:35:51.428Z,96426.56
2023-04-10T20:38:20.912Z,96428.69
2023-04-10T20:40:49.096Z,96429.22
2023-04-10T20:43:18.675Z,96425.63
2023-04-10T20:45:46.745Z,96430.13
2023-04-10T20:48:14.893Z,96428.91
2023-04-10T20:50:44.531Z,96431.09
2023-04-10T20:53:13.015Z,96418.53
2023-04-10T20:55:42.582Z,96422.56
2023-04-10T20:58:10.663Z,96412.41
2023-04-10T21:00:39.702Z,96405.22
2023-04-10T21:03:08.121Z,96411.00
2023-04-10T21:05:41.399Z,96401.75
2023-04-10T21:08:10.038Z,96388.84
2023-04-10T21:10:43.896Z,96380.63
2023-04-10T21:13:14.235Z,96381.81
2023-04-10T21:15:42.572Z,96387.19
2023-04-10T21:18:11.461Z,96383.66
2023-04-10T21:20:39.549Z,96396.13
2023-04-10T21:23:07.657Z,96384.88
2023-04-10T21:25:37.297Z,96375.00
2023-04-10T21:28:05.800Z,96367.88
2023-04-10T21:30:35.308Z,96369.56
2023-04-10T21:33:03.430Z,96376.00
2023-04-10T21:35:31.480Z,96394.06
2023-04-10T21:38:02.153Z,96393.03
2023-04-10T21:40:33.936Z,96393.03
2023-04-10T21:43:02.180Z,96385.56
2023-04-10T21:45:30.410Z,96386.44
2023-04-10T21:48:00.778Z,96386.31
2023-04-10T21:50:28.995Z,96372.63
2023-04-10T21:52:57.093Z,96375.84
2023-04-10T21:55:25.237Z,96374.00
2023-04-10T21:57:53.299Z,96357.50
2023-04-10T22:00:23.009Z,96349.38
2023-04-10T22:02:52.039Z,96342.91
2023-04-10T22:05:22.594Z,96334.81
2023-04-10T22:07:50.673Z,96337.59
2023-04-10T22:10:18.951Z,96328.53
2023-04-10T22:12:48.918Z,96330.06
2023-04-10T22:15:17.507Z,96317.91
2023-04-10T22:17:45.764Z,96319.59
2023-04-10T22:20:13.972Z,96313.19
2023-04-10T22:22:43.375Z,96306.75
2023-04-10T22:25:11.590Z,96305.81
2023-04-10T22:27:39.643Z,96296.56
2023-04-10T22:30:10.005Z,96298.81
2023-04-10T22:32:38.294Z,96277.59
2023-04-10T22:35:08.396Z,96258.91
2023-04-10T22:37:36.486Z,96247.13
2023-04-10T22:40:07.665Z,96253.53
2023-04-10T22:42:35.755Z,96236.44
2023-04-10T22:45:04.002Z,96233.50
2023-04-10T22:47:55.994Z,96234.81
2023-04-10T22:50:24.128Z,96230.09
2023-04-10T22:52:52.157Z,96223.84
2023-04-10T22:55:21.862Z,96223.84
2023-04-10T22:57:50.181Z,96221.00
2023-04-10T23:00:18.686Z,96217.53
2023-04-10T23:02:46.812Z,96215.09
2023-04-10T23:05:14.970Z,96220.63
2023-04-10T23:08:08.890Z,96257.72
2023-04-10T23:10:38.255Z,96272.44
2023-04-10T23:13:06.382Z,96267.53
2023-04-10T23:15:34.955Z,96254.59
2023-04-10T23:18:03.063Z,96238.28
2023-04-10T23:20:31.294Z,96234.34
2023-04-10T23:22:59.350Z,96237.81
2023-04-10T23:25:27.584Z,96235.78
2023-04-10T23:27:57.927Z,96240.16
2023-04-10T23:30:26.247Z,96232.91
2023-04-10T23:32:54.342Z,96235.47
2023-04-10T23:35:22.510Z,96226.97
2023-04-10T23:37:51.148Z,96224.56
2023-04-10T23:40:20.602Z,96227.44
2023-04-10T23:42:48.903Z,96222.63
2023-04-10T23:45:18.440Z,96201.84
2023-04-10T23:47:47.318Z,96200.00
2023-04-10T23:50:16.973Z,96200.09
2023-04-10T23:52:50.250Z,96210.09
2023-04-10T23:55:19.043Z,96204.53
2023-04-10T23:57:47.153Z,96205.13
